createdAt,value
2022-12-24T00:01:37.674Z,7.43
2022-12-24T00:04:06.450Z,6.93
2022-12-24T00:06:35.188Z,8.23
2022-12-24T00:09:03.747Z,6.07
2022-12-24T00:11:32.147Z,6.70
2022-12-24T00:14:02.072Z,6.30
2022-12-24T00:16:30.608Z,6.93
2022-12-24T00:18:59.226Z,6.33
2022-12-24T00:21:27.729Z,6.13
2022-12-24T00:23:56.267Z,6.17
2022-12-24T00:26:24.709Z,6.30
2022-12-24T00:28:53.274Z,5.77
2022-12-24T00:31:23.129Z,6.03
2022-12-24T00:33:51.906Z,5.40
2022-12-24T00:36:20.713Z,5.80
2022-12-24T00:38:49.310Z,5.20
2022-12-24T00:41:29.328Z,4.63
2022-12-24T00:44:00.208Z,5.03
2022-12-24T00:46:32.696Z,5.03
2022-12-24T00:49:01.549Z,5.13
2022-12-24T00:51:30.206Z,5.40
2022-12-24T00:53:58.830Z,4.87
2022-12-24T00:56:27.489Z,4.97
2022-12-24T00:58:56.469Z,5.53
2022-12-24T01:01:25.651Z,5.77
2022-12-24T01:04:16.432Z,5.43
2022-12-24T01:06:44.408Z,5.27
2022-12-24T01:09:12.940Z,5.10
2022-12-24T01:11:42.278Z,5.70
2022-12-24T01:14:10.783Z,4.90
2022-12-24T01:16:39.312Z,5.77
2022-12-24T01:19:09.136Z,5.13
2022-12-24T01:21:37.678Z,5.23
2022-12-24T01:24:06.440Z,4.90
2022-12-24T01:26:34.936Z,4.73
2022-12-24T01:29:03.389Z,4.80
2022-12-24T01:31:31.952Z,4.83
2022-12-24T01:34:00.469Z,4.30
2022-12-24T01:36:30.439Z,4.10
2022-12-24T01:38:58.899Z,4.40
2022-12-24T01:41:45.118Z,4.47
2022-12-24T01:44:33.098Z,4.50
2022-12-24T01:47:10.472Z,4.30
2022-12-24T01:49:41.764Z,4.53
2022-12-24T01:52:15.585Z,4.60
2022-12-24T01:54:48.846Z,4.40
2022-12-24T01:57:22.081Z,4.43
2022-12-24T01:59:54.739Z,4.50
2022-12-24T02:02:23.774Z,4.50
2022-12-24T02:04:58.866Z,4.83
2022-12-24T02:07:29.266Z,4.10
2022-12-24T02:10:00.245Z,3.67
2022-12-24T02:12:31.590Z,3.93
2022-12-24T02:15:00.640Z,3.60
2022-12-24T02:17:36.576Z,3.90
2022-12-24T02:20:41.768Z,4.00
2022-12-24T02:23:39.359Z,3.70
2022-12-24T02:26:20.781Z,3.80
2022-12-24T02:29:13.061Z,3.60
2022-12-24T02:31:49.725Z,3.40
2022-12-24T02:34:22.539Z,3.30
2022-12-24T02:36:59.388Z,3.30
2022-12-24T02:39:35.156Z,3.60
2022-12-24T02:42:07.985Z,3.90
2022-12-24T02:44:42.244Z,3.40
2022-12-24T02:47:12.629Z,3.50
2022-12-24T02:49:44.704Z,3.50
2022-12-24T02:52:29.702Z,3.53
2022-12-24T02:54:59.754Z,3.73
2022-12-24T02:57:34.503Z,3.27
2022-12-24T03:00:08.435Z,3.57
2022-12-24T03:02:51.483Z,3.23
2022-12-24T03:05:26.758Z,3.43
2022-12-24T03:08:04.281Z,3.57
2022-12-24T03:10:38.420Z,3.70
2022-12-24T03:13:11.566Z,3.20
2022-12-24T03:15:41.281Z,3.57
2022-12-24T03:18:13.322Z,2.87
2022-12-24T03:20:45.204Z,3.03
2022-12-24T03:23:14.678Z,3.10
2022-12-24T03:25:45.393Z,3.00
2022-12-24T03:28:16.479Z,2.90
2022-12-24T03:30:48.913Z,3.40
2022-12-24T03:33:19.048Z,3.30
2022-12-24T03:35:48.176Z,3.40
2022-12-24T03:38:16.658Z,3.13
2022-12-24T03:40:45.190Z,3.37
2022-12-24T03:43:13.914Z,2.80
2022-12-24T03:45:42.477Z,3.10
2022-12-24T03:48:10.974Z,3.60
2022-12-24T03:50:40.867Z,4.10
2022-12-24T03:53:09.292Z,3.50
2022-12-24T03:55:37.935Z,3.80
2022-12-24T03:58:06.655Z,4.10
2022-12-24T04:00:35.198Z,3.40
2022-12-24T04:03:03.755Z,2.60
2022-12-24T04:05:32.354Z,2.80
2022-12-24T04:08:02.136Z,3.03
2022-12-24T04:10:30.606Z,2.93
2022-12-24T04:12:59.059Z,2.80
2022-12-24T04:15:27.614Z,2.67
2022-12-24T04:17:56.906Z,2.80
2022-12-24T04:20:26.202Z,2.57
2022-12-24T04:22:55.375Z,2.67
2022-12-24T04:25:25.272Z,2.27
2022-12-24T04:27:53.754Z,2.57
2022-12-24T04:30:22.197Z,2.70
2022-12-24T04:32:50.754Z,2.37
2022-12-24T04:35:19.316Z,2.60
2022-12-24T04:37:47.770Z,3.00
2022-12-24T04:40:16.328Z,3.23
2022-12-24T04:42:46.135Z,2.87
2022-12-24T04:45:15.423Z,2.87
2022-12-24T04:47:43.860Z,2.70
2022-12-24T04:50:12.789Z,2.80
2022-12-24T04:52:41.245Z,2.77
2022-12-24T04:55:10.643Z,2.77
2022-12-24T04:57:39.103Z,2.53
2022-12-24T05:00:10.475Z,2.90
2022-12-24T05:02:39.215Z,3.03
2022-12-24T05:05:08.535Z,3.40
2022-12-24T05:07:37.076Z,2.83
2022-12-24T05:10:06.144Z,2.43
2022-12-24T05:12:34.664Z,2.40
2022-12-24T05:15:04.308Z,2.60
2022-12-24T05:17:34.159Z,2.67
2022-12-24T05:20:02.563Z,2.80
2022-12-24T05:22:48.451Z,2.50
2022-12-24T05:25:34.678Z,2.60
2022-12-24T05:28:03.228Z,2.80
2022-12-24T05:30:31.778Z,2.30
2022-12-24T05:33:01.649Z,2.90
2022-12-24T05:35:30.166Z,2.90
2022-12-24T05:37:59.863Z,2.43
2022-12-24T05:40:28.339Z,2.40
2022-12-24T05:42:56.837Z,2.40
2022-12-24T05:45:25.309Z,2.00
2022-12-24T05:47:53.727Z,2.40
2022-12-24T05:50:23.532Z,2.43
2022-12-24T05:53:06.212Z,2.67
2022-12-24T05:55:34.903Z,3.40
2022-12-24T05:58:03.295Z,3.20
2022-12-24T06:00:31.856Z,2.53
2022-12-24T06:03:00.432Z,3.97
2022-12-24T06:05:30.461Z,10.73
2022-12-24T06:07:58.911Z,8.97
2022-12-24T06:10:27.419Z,5.47
2022-12-24T06:12:57.212Z,3.90
2022-12-24T06:15:26.454Z,3.60
2022-12-24T06:17:54.877Z,4.00
2022-12-24T06:20:23.412Z,3.33
2022-12-24T06:22:53.270Z,3.00
2022-12-24T06:25:21.773Z,2.80
2022-12-24T06:27:50.246Z,2.97
2022-12-24T06:30:19.041Z,2.80
2022-12-24T06:32:47.579Z,2.90
2022-12-24T06:35:16.037Z,2.90
2022-12-24T06:37:44.436Z,3.77
2022-12-24T06:40:14.557Z,3.10
2022-12-24T06:42:43.075Z,3.30
2022-12-24T06:45:12.364Z,3.43
2022-12-24T06:47:40.926Z,3.67
2022-12-24T06:50:10.308Z,3.87
2022-12-24T06:52:38.765Z,4.07
2022-12-24T06:55:08.188Z,3.20
2022-12-24T06:57:38.057Z,3.27
2022-12-24T07:00:08.035Z,3.03
2022-12-24T07:02:36.615Z,3.33
2022-12-24T07:05:05.337Z,3.27
2022-12-24T07:07:33.793Z,3.70
2022-12-24T07:10:02.211Z,3.30
2022-12-24T07:12:30.588Z,2.80
2022-12-24T07:15:00.443Z,3.37
2022-12-24T07:17:28.962Z,3.80
2022-12-24T07:19:57.481Z,3.37
2022-12-24T07:22:25.953Z,3.40
2022-12-24T07:24:54.369Z,3.67
2022-12-24T07:27:22.937Z,3.43
2022-12-24T07:29:51.349Z,2.60
2022-12-24T07:32:21.267Z,2.70
2022-12-24T07:34:49.751Z,2.80
2022-12-24T07:37:18.265Z,3.50
2022-12-24T07:39:47.169Z,3.10
2022-12-24T07:42:15.594Z,3.40
2022-12-24T07:44:44.101Z,3.23
2022-12-24T07:47:12.736Z,3.70
2022-12-24T07:49:42.653Z,3.30
2022-12-24T07:52:11.085Z,3.53
2022-12-24T07:54:39.626Z,3.27
2022-12-24T07:57:08.104Z,4.23
2022-12-24T07:59:36.640Z,3.87
2022-12-24T08:02:05.245Z,4.50
2022-12-24T08:04:36.393Z,4.90
2022-12-24T08:07:06.404Z,5.10
2022-12-24T08:09:35.298Z,4.77
2022-12-24T08:12:04.279Z,4.43
2022-12-24T08:14:33.258Z,4.30
2022-12-24T08:17:01.671Z,4.63
2022-12-24T08:19:30.216Z,5.37
2022-12-24T08:21:58.622Z,4.17
2022-12-24T08:24:28.705Z,4.80
2022-12-24T08:26:57.243Z,4.93
2022-12-24T08:29:25.676Z,4.97
2022-12-24T08:31:54.150Z,4.80
2022-12-24T08:34:22.586Z,5.87
2022-12-24T08:36:50.957Z,4.40
2022-12-24T08:39:19.479Z,4.57
2022-12-24T08:41:49.293Z,4.60
2022-12-24T08:44:17.825Z,3.80
2022-12-24T08:46:46.653Z,3.70
2022-12-24T08:49:15.185Z,3.83
2022-12-24T08:51:43.650Z,3.70
2022-12-24T08:54:12.214Z,3.47
2022-12-24T08:56:40.627Z,3.50
2022-12-24T08:59:12.199Z,3.47
2022-12-24T09:01:40.832Z,3.67
2022-12-24T09:04:09.721Z,3.00
2022-12-24T09:06:38.382Z,4.50
2022-12-24T09:09:07.670Z,4.20
2022-12-24T09:11:37.196Z,3.47
2022-12-24T09:14:06.685Z,3.77
2022-12-24T09:16:36.695Z,4.23
2022-12-24T09:19:05.369Z,4.10
2022-12-24T09:21:33.995Z,5.13
2022-12-24T09:24:05.163Z,3.27
2022-12-24T09:26:34.039Z,3.03
2022-12-24T09:29:02.542Z,3.80
2022-12-24T09:31:31.230Z,3.20
2022-12-24T09:34:01.390Z,4.10
2022-12-24T09:36:30.220Z,3.83
2022-12-24T09:38:58.657Z,3.93
2022-12-24T09:41:41.184Z,3.53
2022-12-24T09:44:22.190Z,3.90
2022-12-24T09:46:53.301Z,7.20
2022-12-24T09:49:26.441Z,4.20
2022-12-24T09:52:02.138Z,5.23
2022-12-24T09:54:33.731Z,4.77
2022-12-24T09:57:07.974Z,3.90
2022-12-24T09:59:44.279Z,5.03
2022-12-24T10:02:15.829Z,4.60
2022-12-24T10:04:48.637Z,4.70
2022-12-24T10:07:29.706Z,3.63
2022-12-24T10:10:04.941Z,4.10
2022-12-24T10:12:39.800Z,4.70
2022-12-24T10:15:17.874Z,6.00
2022-12-24T10:17:57.570Z,6.43
2022-12-24T10:20:47.612Z,6.50
2022-12-24T10:23:25.452Z,8.83
2022-12-24T10:26:04.659Z,6.37
2022-12-24T10:28:40.098Z,5.90
2022-12-24T10:31:09.753Z,7.13
2022-12-24T10:33:43.150Z,7.43
2022-12-24T10:36:19.407Z,6.33
2022-12-24T10:38:49.094Z,6.17
2022-12-24T10:41:18.613Z,11.87
2022-12-24T10:43:48.538Z,9.80
2022-12-24T10:46:21.034Z,5.63
2022-12-24T10:48:55.046Z,6.07
2022-12-24T10:51:34.021Z,6.87
2022-12-24T10:54:08.334Z,5.50
2022-12-24T10:56:42.912Z,5.63
2022-12-24T10:59:26.999Z,5.57
2022-12-24T11:01:56.795Z,6.00
2022-12-24T11:04:27.429Z,5.47
2022-12-24T11:07:00.144Z,5.30
2022-12-24T11:09:31.367Z,6.27
2022-12-24T11:12:08.434Z,5.97
2022-12-24T11:14:40.055Z,6.43
2022-12-24T11:17:08.917Z,6.43
2022-12-24T11:19:40.234Z,7.43
2022-12-24T11:22:20.393Z,7.83
2022-12-24T11:25:02.447Z,7.30
2022-12-24T11:27:35.292Z,6.67
2022-12-24T11:30:30.459Z,7.70
2022-12-24T11:33:19.069Z,7.53
2022-12-24T11:35:54.556Z,8.17
2022-12-24T11:38:26.273Z,8.10
2022-12-24T11:41:07.269Z,8.13
2022-12-24T11:43:47.362Z,8.00
2022-12-24T11:46:19.851Z,8.03
2022-12-24T11:48:49.367Z,8.03
2022-12-24T11:51:24.866Z,8.07
2022-12-24T11:54:03.395Z,8.50
2022-12-24T11:56:39.017Z,8.50
2022-12-24T11:59:18.947Z,7.93
2022-12-24T12:01:55.700Z,8.17
2022-12-24T12:04:27.847Z,8.67
2022-12-24T12:07:00.676Z,9.47
2022-12-24T12:09:34.914Z,9.03
2022-12-24T12:12:07.672Z,9.47
2022-12-24T12:14:41.741Z,9.60
2022-12-24T12:17:22.276Z,10.63
2022-12-24T12:19:54.451Z,9.33
2022-12-24T12:22:30.495Z,10.30
2022-12-24T12:25:02.241Z,11.90
2022-12-24T12:27:36.937Z,9.27
2022-12-24T12:30:08.303Z,9.23
2022-12-24T12:32:45.867Z,8.40
2022-12-24T12:35:24.456Z,7.30
2022-12-24T12:37:58.325Z,7.47
2022-12-24T12:40:53.752Z,7.77
2022-12-24T12:43:35.608Z,6.73
2022-12-24T12:46:13.355Z,7.07
2022-12-24T12:49:02.575Z,5.47
2022-12-24T12:51:40.951Z,6.97
2022-12-24T12:54:25.895Z,7.10
2022-12-24T12:57:02.989Z,7.00
2022-12-24T12:59:37.562Z,9.73
2022-12-24T13:02:27.670Z,8.83
2022-12-24T13:05:41.229Z,8.63
2022-12-24T13:08:32.966Z,8.17
2022-12-24T13:11:44.170Z,8.30
2022-12-24T13:14:27.818Z,7.77
2022-12-24T13:17:26.418Z,8.90
2022-12-24T13:20:19.069Z,7.33
2022-12-24T13:22:54.778Z,7.63
2022-12-24T13:25:27.646Z,6.53
2022-12-24T13:27:56.364Z,7.87
2022-12-24T13:30:37.679Z,7.43
2022-12-24T13:33:10.450Z,8.97
2022-12-24T13:35:59.975Z,6.20
2022-12-24T13:38:35.851Z,9.90
2022-12-24T13:41:41.319Z,10.17
2022-12-24T13:44:19.195Z,10.87
2022-12-24T13:46:58.402Z,8.33
2022-12-24T13:49:34.707Z,8.00
2022-12-24T13:52:22.949Z,7.00
2022-12-24T13:55:15.972Z,7.83
2022-12-24T13:57:49.200Z,7.53
2022-12-24T14:00:31.864Z,7.03
2022-12-24T14:03:05.442Z,9.07
2022-12-24T14:05:37.338Z,8.53
2022-12-24T14:08:09.796Z,8.43
2022-12-24T14:10:42.857Z,8.33
2022-12-24T14:13:44.513Z,6.50
2022-12-24T14:16:16.242Z,8.47
2022-12-24T14:18:49.590Z,7.17
2022-12-24T14:21:22.052Z,6.37
2022-12-24T14:23:55.855Z,9.20
2022-12-24T14:26:26.619Z,8.73
2022-12-24T14:28:57.934Z,9.13
2022-12-24T14:31:26.875Z,11.87
2022-12-24T14:34:09.213Z,11.50
2022-12-24T14:36:38.495Z,12.30
2022-12-24T14:39:10.207Z,12.53
2022-12-24T14:41:47.667Z,12.90
2022-12-24T14:44:30.872Z,13.27
2022-12-24T14:47:17.189Z,14.27
2022-12-24T14:50:06.262Z,15.10
2022-12-24T14:55:33.569Z,21.20
2022-12-24T14:58:27.422Z,21.97
2022-12-24T15:00:58.653Z,22.20
2022-12-24T15:03:29.166Z,24.30
2022-12-24T15:06:01.967Z,24.53
2022-12-24T15:08:33.408Z,25.73
2022-12-24T15:11:07.082Z,25.83
2022-12-24T15:13:40.226Z,24.50
2022-12-24T15:16:11.152Z,25.17
2022-12-24T15:18:51.097Z,23.33
2022-12-24T15:21:25.169Z,25.17
2022-12-24T15:23:54.621Z,26.90
2022-12-24T15:26:27.167Z,24.47
2022-12-24T15:29:03.200Z,25.80
2022-12-24T15:31:33.256Z,24.60
2022-12-24T15:34:02.087Z,22.97
2022-12-24T15:36:34.453Z,23.53
2022-12-24T15:39:09.620Z,22.77
2022-12-24T15:42:02.737Z,22.87
2022-12-24T15:44:36.287Z,21.53
2022-12-24T15:47:08.717Z,20.93
2022-12-24T15:49:38.099Z,21.77
2022-12-24T15:52:11.886Z,22.47
2022-12-24T15:54:45.543Z,24.00
2022-12-24T15:57:16.407Z,24.13
2022-12-24T15:59:45.800Z,24.77
2022-12-24T16:02:37.244Z,21.20
2022-12-24T16:05:32.565Z,21.27
2022-12-24T16:08:10.348Z,24.67
2022-12-24T16:10:41.243Z,26.03
2022-12-24T16:13:18.689Z,26.90
2022-12-24T16:15:50.320Z,26.57
2022-12-24T16:18:23.420Z,30.13
2022-12-24T16:20:53.141Z,30.30
2022-12-24T16:23:25.936Z,32.00
2022-12-24T16:25:55.273Z,30.43
2022-12-24T16:28:23.730Z,32.60
2022-12-24T16:30:52.306Z,30.77
2022-12-24T16:33:22.102Z,28.50
2022-12-24T16:35:51.415Z,27.50
2022-12-24T16:38:20.010Z,25.73
2022-12-24T16:40:49.924Z,26.80
2022-12-24T16:43:36.269Z,27.87
2022-12-24T16:46:08.235Z,28.63
2022-12-24T16:48:39.267Z,25.57
2022-12-24T16:51:07.776Z,24.90
2022-12-24T16:53:36.273Z,23.33
2022-12-24T16:56:06.923Z,22.70
2022-12-24T16:58:35.426Z,23.13
2022-12-24T17:01:09.558Z,22.23
2022-12-24T17:03:39.083Z,20.13
2022-12-24T17:06:09.481Z,23.17
2022-12-24T17:08:38.336Z,23.63
2022-12-24T17:11:08.268Z,23.00
2022-12-24T17:13:37.784Z,22.07
2022-12-24T17:16:06.999Z,22.83
2022-12-24T17:18:36.427Z,22.20
2022-12-24T17:21:06.942Z,22.50
2022-12-24T17:23:35.455Z,22.40
2022-12-24T17:26:08.994Z,23.33
2022-12-24T17:28:43.398Z,24.73
2022-12-24T17:31:14.055Z,22.83
2022-12-24T17:33:44.094Z,23.80
2022-12-24T17:36:12.636Z,22.90
2022-12-24T17:38:41.309Z,23.80
2022-12-24T17:41:12.481Z,21.57
2022-12-24T17:43:43.290Z,20.57
2022-12-24T17:46:15.458Z,20.50
2022-12-24T17:48:45.192Z,21.37
2022-12-24T17:51:17.329Z,20.57
2022-12-24T17:53:45.912Z,20.30
2022-12-24T17:56:15.540Z,20.10
2022-12-24T17:58:46.903Z,20.50
2022-12-24T18:01:17.923Z,20.10
2022-12-24T18:03:47.146Z,20.50
2022-12-24T18:06:17.413Z,19.97
2022-12-24T18:08:48.809Z,20.10
2022-12-24T18:11:20.876Z,19.67
2022-12-24T18:13:51.646Z,19.70
2022-12-24T18:16:22.402Z,19.57
2022-12-24T18:18:51.733Z,20.23
2022-12-24T18:21:22.164Z,19.03
2022-12-24T18:23:52.666Z,17.90
2022-12-24T18:26:21.505Z,17.57
2022-12-24T18:28:51.318Z,18.10
2022-12-24T18:31:21.579Z,17.17
2022-12-24T18:33:54.307Z,19.20
2022-12-24T18:36:23.410Z,19.90
2022-12-24T18:38:52.282Z,21.20
2022-12-24T18:41:22.610Z,20.70
2022-12-24T18:43:52.805Z,19.10
2022-12-24T18:46:23.624Z,20.33
2022-12-24T18:48:53.176Z,18.60
2022-12-24T18:51:23.975Z,20.13
2022-12-24T18:53:52.830Z,19.67
2022-12-24T18:56:23.348Z,19.93
2022-12-24T18:58:56.233Z,19.73
2022-12-24T19:01:27.490Z,18.80
2022-12-24T19:03:56.817Z,18.33
2022-12-24T19:06:25.882Z,18.47
2022-12-24T19:08:58.508Z,19.23
2022-12-24T19:11:30.039Z,19.10
2022-12-24T19:14:00.909Z,19.03
2022-12-24T19:16:30.781Z,20.43
2022-12-24T19:18:59.444Z,22.63
2022-12-24T19:21:27.991Z,22.17
2022-12-24T19:23:56.495Z,22.33
2022-12-24T19:26:24.931Z,23.13
2022-12-24T19:28:54.318Z,21.33
2022-12-24T19:31:26.175Z,19.93
2022-12-24T19:33:56.817Z,22.10
2022-12-24T19:36:27.462Z,20.83
2022-12-24T19:38:57.016Z,21.50
2022-12-24T19:41:27.258Z,22.87
2022-12-24T19:43:58.252Z,26.73
2022-12-24T19:46:29.892Z,26.90
2022-12-24T19:49:01.043Z,33.20
2022-12-24T19:51:30.574Z,31.50
2022-12-24T19:54:01.331Z,31.60
2022-12-24T19:56:31.693Z,32.07
2022-12-24T19:59:01.260Z,30.83
2022-12-24T20:01:34.130Z,30.07
2022-12-24T20:04:04.513Z,30.80
2022-12-24T20:06:36.045Z,30.70
2022-12-24T20:09:07.622Z,28.83
2022-12-24T20:11:37.035Z,29.40
2022-12-24T20:14:06.891Z,28.93
2022-12-24T20:16:36.875Z,29.97
2022-12-24T20:19:06.873Z,31.10
2022-12-24T20:21:35.780Z,30.17
2022-12-24T20:24:04.364Z,30.50
2022-12-24T20:26:32.772Z,31.23
2022-12-24T20:29:05.169Z,30.00
2022-12-24T20:31:34.671Z,29.67
2022-12-24T20:34:07.458Z,30.47
2022-12-24T20:36:37.196Z,30.57
2022-12-24T20:39:06.451Z,28.67
2022-12-24T20:41:35.266Z,30.40
2022-12-24T20:44:04.719Z,24.43
2022-12-24T20:46:33.834Z,25.47
2022-12-24T20:49:03.798Z,26.23
2022-12-24T20:51:32.388Z,24.10
2022-12-24T20:54:02.097Z,25.73
2022-12-24T20:56:30.869Z,26.97
2022-12-24T20:59:01.055Z,27.97
2022-12-24T21:01:30.280Z,26.17
2022-12-24T21:04:04.743Z,24.53
2022-12-24T21:06:36.315Z,23.77
2022-12-24T21:09:06.184Z,23.43
2022-12-24T21:11:51.975Z,24.17
2022-12-24T21:14:22.628Z,23.17
2022-12-24T21:16:51.690Z,18.47
2022-12-24T21:19:23.600Z,19.90
2022-12-24T21:21:53.879Z,19.23
2022-12-24T21:24:22.674Z,19.20
2022-12-24T21:26:51.203Z,20.37
2022-12-24T21:29:19.729Z,20.37
2022-12-24T21:31:48.399Z,18.90
2022-12-24T21:34:17.045Z,19.00
2022-12-24T21:36:46.276Z,18.70
2022-12-24T21:39:16.227Z,19.03
2022-12-24T21:41:44.762Z,17.60
2022-12-24T21:44:13.657Z,18.40
2022-12-24T21:46:42.445Z,18.63
2022-12-24T21:49:29.427Z,19.37
2022-12-24T21:51:59.922Z,17.90
2022-12-24T21:54:31.577Z,18.20
2022-12-24T21:57:19.461Z,17.90
2022-12-24T21:59:50.992Z,16.70
2022-12-24T22:02:23.109Z,17.30
2022-12-24T22:04:52.220Z,16.83
2022-12-24T22:07:40.745Z,17.30
2022-12-24T22:10:29.821Z,15.90
2022-12-24T22:13:01.192Z,16.63
2022-12-24T22:15:30.577Z,15.63
2022-12-24T22:17:59.330Z,15.83
2022-12-24T22:20:28.231Z,29.03
2022-12-24T22:22:56.783Z,16.90
2022-12-24T22:25:26.682Z,17.20
2022-12-24T22:27:55.413Z,16.13
2022-12-24T22:30:24.400Z,15.77
2022-12-24T22:32:53.110Z,15.97
2022-12-24T22:35:21.780Z,17.07
2022-12-24T22:37:54.556Z,17.20
2022-12-24T22:40:29.483Z,16.13
2022-12-24T22:42:58.004Z,16.20
2022-12-24T22:45:26.669Z,15.60
2022-12-24T22:47:55.137Z,16.67
2022-12-24T22:50:23.905Z,16.73
2022-12-24T22:52:52.789Z,17.27
2022-12-24T22:55:22.365Z,16.67
2022-12-24T22:57:52.247Z,17.77
2022-12-24T23:00:39.288Z,17.37
2022-12-24T23:03:11.667Z,17.27
2022-12-24T23:05:40.501Z,17.20
2022-12-24T23:08:09.547Z,16.07
2022-12-24T23:10:38.902Z,14.80
2022-12-24T23:13:26.896Z,14.90
2022-12-24T23:15:55.503Z,14.43
2022-12-24T23:18:23.942Z,14.63
2022-12-24T23:20:53.270Z,13.63
2022-12-24T23:23:21.705Z,14.97
2022-12-24T23:25:50.269Z,14.20
2022-12-24T23:28:20.219Z,14.20
2022-12-24T23:30:59.028Z,15.50
2022-12-24T23:33:27.805Z,14.23
2022-12-24T23:35:56.271Z,15.23
2022-12-24T23:38:24.744Z,16.20
2022-12-24T23:40:56.478Z,16.10
2022-12-24T23:43:26.646Z,14.13
2022-12-24T23:45:55.830Z,14.27
2022-12-24T23:48:25.727Z,13.20
2022-12-24T23:51:03.777Z,12.50
2022-12-24T23:53:32.447Z,16.90
2022-12-24T23:56:00.973Z,11.20
2022-12-24T23:58:30.941Z,15.53
